sensor_id;sensor_type;location;lat;lon;timestamp;P1;durP1;ratioP1;P2;durP2;ratioP2
79145;SDS011;68792;53.338;-1.502;2023-05-14T00:02:09;6.35;;;5.07;;
79145;SDS011;68792;53.338;-1.502;2023-05-14T00:04:34;5.82;;;5.13;;
79145;SDS011;68792;53.338;-1.502;2023-05-14T00:07:00;5.47;;;4.20;;
79145;SDS011;68792;53.338;-1.502;2023-05-14T00:09:25;6.20;;;4.80;;
79145;SDS011;68792;53.338;-1.502;2023-05-14T00:11:51;6.45;;;4.65;;
79145;SDS011;68792;53.338;-1.502;2023-05-14T00:14:16;6.00;;;4.65;;
79145;SDS011;68792;53.338;-1.502;2023-05-14T00:16:42;5.75;;;4.30;;
79145;SDS011;68792;53.338;-1.502;2023-05-14T00:19:07;7.28;;;4.85;;
79145;SDS011;68792;53.338;-1.502;2023-05-14T00:21:32;6.45;;;4.90;;
79145;SDS011;68792;53.338;-1.502;2023-05-14T00:23:58;7.47;;;5.45;;
79145;SDS011;68792;53.338;-1.502;2023-05-14T00:26:23;6.78;;;5.20;;
79145;SDS011;68792;53.338;-1.502;2023-05-14T00:28:49;7.20;;;5.38;;
79145;SDS011;68792;53.338;-1.502;2023-05-14T00:31:14;6.32;;;4.65;;
79145;SDS011;68792;53.338;-1.502;2023-05-14T00:33:40;7.03;;;5.38;;
79145;SDS011;68792;53.338;-1.502;2023-05-14T00:36:05;6.50;;;5.00;;
79145;SDS011;68792;53.338;-1.502;2023-05-14T00:38:31;6.95;;;5.38;;
79145;SDS011;68792;53.338;-1.502;2023-05-14T00:40:57;7.75;;;5.75;;
79145;SDS011;68792;53.338;-1.502;2023-05-14T00:43:22;6.43;;;4.78;;
79145;SDS011;68792;53.338;-1.502;2023-05-14T00:45:49;7.07;;;5.20;;
79145;SDS011;68792;53.338;-1.502;2023-05-14T00:48:15;7.10;;;5.10;;
79145;SDS011;68792;53.338;-1.502;2023-05-14T00:50:41;7.68;;;5.25;;
79145;SDS011;68792;53.338;-1.502;2023-05-14T00:53:06;6.32;;;5.35;;
79145;SDS011;68792;53.338;-1.502;2023-05-14T00:55:35;6.90;;;5.57;;
79145;SDS011;68792;53.338;-1.502;2023-05-14T00:58:06;6.68;;;5.45;;
79145;SDS011;68792;53.338;-1.502;2023-05-14T01:00:34;7.13;;;5.70;;
79145;SDS011;68792;53.338;-1.502;2023-05-14T01:03:00;6.30;;;4.82;;
79145;SDS011;68792;53.338;-1.502;2023-05-14T01:05:32;5.68;;;4.53;;
79145;SDS011;68792;53.338;-1.502;2023-05-14T01:08:09;6.40;;;5.50;;
79145;SDS011;68792;53.338;-1.502;2023-05-14T01:13:11;8.40;;;5.68;;
79145;SDS011;68792;53.338;-1.502;2023-05-14T01:15:40;6.53;;;5.20;;
79145;SDS011;68792;53.338;-1.502;2023-05-14T01:20:34;7.15;;;5.22;;
79145;SDS011;68792;53.338;-1.502;2023-05-14T01:23:00;6.80;;;4.97;;
79145;SDS011;68792;53.338;-1.502;2023-05-14T01:25:26;6.53;;;4.97;;
79145;SDS011;68792;53.338;-1.502;2023-05-14T01:35:42;7.00;;;5.35;;
79145;SDS011;68792;53.338;-1.502;2023-05-14T01:38:10;6.70;;;5.35;;
79145;SDS011;68792;53.338;-1.502;2023-05-14T01:40:36;7.45;;;5.50;;
79145;SDS011;68792;53.338;-1.502;2023-05-14T01:43:03;7.75;;;5.30;;
79145;SDS011;68792;53.338;-1.502;2023-05-14T01:45:29;5.90;;;4.78;;
79145;SDS011;68792;53.338;-1.502;2023-05-14T01:47:55;6.20;;;5.20;;
79145;SDS011;68792;53.338;-1.502;2023-05-14T01:50:21;5.45;;;4.90;;
79145;SDS011;68792;53.338;-1.502;2023-05-14T01:52:46;5.53;;;4.72;;
79145;SDS011;68792;53.338;-1.502;2023-05-14T01:55:17;5.90;;;5.05;;
79145;SDS011;68792;53.338;-1.502;2023-05-14T01:57:43;6.45;;;4.75;;
79145;SDS011;68792;53.338;-1.502;2023-05-14T02:00:08;6.60;;;4.90;;
79145;SDS011;68792;53.338;-1.502;2023-05-14T02:02:34;6.00;;;4.88;;
79145;SDS011;68792;53.338;-1.502;2023-05-14T02:05:00;5.72;;;4.55;;
79145;SDS011;68792;53.338;-1.502;2023-05-14T02:07:25;6.78;;;4.80;;
79145;SDS011;68792;53.338;-1.502;2023-05-14T02:09:51;6.38;;;4.95;;
79145;SDS011;68792;53.338;-1.502;2023-05-14T02:12:16;6.90;;;4.95;;
79145;SDS011;68792;53.338;-1.502;2023-05-14T02:14:41;8.55;;;4.90;;
79145;SDS011;68792;53.338;-1.502;2023-05-14T02:17:07;5.65;;;4.63;;
79145;SDS011;68792;53.338;-1.502;2023-05-14T02:19:33;5.95;;;4.55;;
79145;SDS011;68792;53.338;-1.502;2023-05-14T02:21:58;4.80;;;4.20;;
79145;SDS011;68792;53.338;-1.502;2023-05-14T02:24:25;5.88;;;4.90;;
79145;SDS011;68792;53.338;-1.502;2023-05-14T02:26:50;5.55;;;4.63;;
79145;SDS011;68792;53.338;-1.502;2023-05-14T02:29:16;6.10;;;4.53;;
79145;SDS011;68792;53.338;-1.502;2023-05-14T02:31:41;5.68;;;4.45;;
79145;SDS011;68792;53.338;-1.502;2023-05-14T02:34:07;7.10;;;4.88;;
79145;SDS011;68792;53.338;-1.502;2023-05-14T02:36:33;6.97;;;4.85;;
79145;SDS011;68792;53.338;-1.502;2023-05-14T02:38:59;5.40;;;4.20;;
79145;SDS011;68792;53.338;-1.502;2023-05-14T02:41:28;6.25;;;4.45;;
79145;SDS011;68792;53.338;-1.502;2023-05-14T02:43:54;6.55;;;4.72;;
79145;SDS011;68792;53.338;-1.502;2023-05-14T02:46:19;6.68;;;4.97;;
79145;SDS011;68792;53.338;-1.502;2023-05-14T02:48:45;5.68;;;4.25;;
79145;SDS011;68792;53.338;-1.502;2023-05-14T02:51:10;6.18;;;4.32;;
79145;SDS011;68792;53.338;-1.502;2023-05-14T02:53:36;5.88;;;4.32;;
79145;SDS011;68792;53.338;-1.502;2023-05-14T02:56:01;6.55;;;3.97;;
79145;SDS011;68792;53.338;-1.502;2023-05-14T02:58:27;5.93;;;4.50;;
79145;SDS011;68792;53.338;-1.502;2023-05-14T03:00:52;5.30;;;3.78;;
79145;SDS011;68792;53.338;-1.502;2023-05-14T03:03:17;5.80;;;4.55;;
79145;SDS011;68792;53.338;-1.502;2023-05-14T03:05:43;6.13;;;4.43;;
79145;SDS011;68792;53.338;-1.502;2023-05-14T03:08:08;6.07;;;4.22;;
79145;SDS011;68792;53.338;-1.502;2023-05-14T03:10:34;5.28;;;3.88;;
79145;SDS011;68792;53.338;-1.502;2023-05-14T03:12:59;7.25;;;4.43;;
79145;SDS011;68792;53.338;-1.502;2023-05-14T03:15:25;6.38;;;4.70;;
79145;SDS011;68792;53.338;-1.502;2023-05-14T03:17:50;5.60;;;4.15;;
79145;SDS011;68792;53.338;-1.502;2023-05-14T03:20:15;6.03;;;4.88;;
79145;SDS011;68792;53.338;-1.502;2023-05-14T03:22:41;4.90;;;3.88;;
79145;SDS011;68792;53.338;-1.502;2023-05-14T03:25:06;5.90;;;4.07;;
79145;SDS011;68792;53.338;-1.502;2023-05-14T03:27:32;4.70;;;3.35;;
79145;SDS011;68792;53.338;-1.502;2023-05-14T03:29:58;5.30;;;3.95;;
79145;SDS011;68792;53.338;-1.502;2023-05-14T03:32:24;5.07;;;3.80;;
79145;SDS011;68792;53.338;-1.502;2023-05-14T03:34:49;5.13;;;3.97;;
79145;SDS011;68792;53.338;-1.502;2023-05-14T03:37:15;4.90;;;3.67;;
79145;SDS011;68792;53.338;-1.502;2023-05-14T03:39:40;4.85;;;3.42;;
79145;SDS011;68792;53.338;-1.502;2023-05-14T03:42:05;4.88;;;3.90;;
79145;SDS011;68792;53.338;-1.502;2023-05-14T03:44:31;4.60;;;3.45;;
79145;SDS011;68792;53.338;-1.502;2023-05-14T03:46:56;5.30;;;3.92;;
79145;SDS011;68792;53.338;-1.502;2023-05-14T03:49:22;4.65;;;3.78;;
79145;SDS011;68792;53.338;-1.502;2023-05-14T03:51:47;5.20;;;3.85;;
79145;SDS011;68792;53.338;-1.502;2023-05-14T03:54:12;6.18;;;4.03;;
79145;SDS011;68792;53.338;-1.502;2023-05-14T03:56:38;4.50;;;3.40;;
79145;SDS011;68792;53.338;-1.502;2023-05-14T03:59:03;4.40;;;3.45;;
79145;SDS011;68792;53.338;-1.502;2023-05-14T04:01:29;4.90;;;3.47;;
79145;SDS011;68792;53.338;-1.502;2023-05-14T04:03:54;5.40;;;3.70;;
79145;SDS011;68792;53.338;-1.502;2023-05-14T04:06:19;4.65;;;3.55;;
79145;SDS011;68792;53.338;-1.502;2023-05-14T04:08:45;4.65;;;3.40;;
79145;SDS011;68792;53.338;-1.502;2023-05-14T04:11:10;4.40;;;3.83;;
79145;SDS011;68792;53.338;-1.502;2023-05-14T04:13:35;5.25;;;3.97;;
79145;SDS011;68792;53.338;-1.502;2023-05-14T04:16:01;4.80;;;3.78;;
79145;SDS011;68792;53.338;-1.502;2023-05-14T04:18:26;4.82;;;3.65;;
79145;SDS011;68792;53.338;-1.502;2023-05-14T04:20:52;4.60;;;3.78;;
79145;SDS011;68792;53.338;-1.502;2023-05-14T04:23:17;5.50;;;3.78;;
79145;SDS011;68792;53.338;-1.502;2023-05-14T04:25:43;5.15;;;4.03;;
79145;SDS011;68792;53.338;-1.502;2023-05-14T04:28:08;4.28;;;3.88;;
79145;SDS011;68792;53.338;-1.502;2023-05-14T04:30:33;4.93;;;4.00;;
79145;SDS011;68792;53.338;-1.502;2023-05-14T04:32:59;4.90;;;3.38;;
79145;SDS011;68792;53.338;-1.502;2023-05-14T04:35:25;4.80;;;3.50;;
79145;SDS011;68792;53.338;-1.502;2023-05-14T04:37:50;4.40;;;3.55;;
79145;SDS011;68792;53.338;-1.502;2023-05-14T04:40:15;4.00;;;3.25;;
79145;SDS011;68792;53.338;-1.502;2023-05-14T04:42:41;4.85;;;3.22;;
79145;SDS011;68792;53.338;-1.502;2023-05-14T04:45:08;4.18;;;3.30;;
79145;SDS011;68792;53.338;-1.502;2023-05-14T04:47:33;5.03;;;3.63;;
79145;SDS011;68792;53.338;-1.502;2023-05-14T04:49:59;5.10;;;3.67;;
79145;SDS011;68792;53.338;-1.502;2023-05-14T04:52:24;4.03;;;2.92;;
79145;SDS011;68792;53.338;-1.502;2023-05-14T04:54:50;3.88;;;3.22;;
79145;SDS011;68792;53.338;-1.502;2023-05-14T04:57:15;5.35;;;3.55;;
79145;SDS011;68792;53.338;-1.502;2023-05-14T04:59:41;4.43;;;3.10;;
79145;SDS011;68792;53.338;-1.502;2023-05-14T05:02:06;4.90;;;3.53;;
79145;SDS011;68792;53.338;-1.502;2023-05-14T05:04:32;4.50;;;2.97;;
79145;SDS011;68792;53.338;-1.502;2023-05-14T05:06:57;5.25;;;3.40;;
79145;SDS011;68792;53.338;-1.502;2023-05-14T05:09:22;4.32;;;3.30;;
79145;SDS011;68792;53.338;-1.502;2023-05-14T05:11:48;4.70;;;3.50;;
79145;SDS011;68792;53.338;-1.502;2023-05-14T05:14:13;3.97;;;3.08;;
79145;SDS011;68792;53.338;-1.502;2023-05-14T05:16:39;4.30;;;3.05;;
79145;SDS011;68792;53.338;-1.502;2023-05-14T05:19:04;5.22;;;3.40;;
79145;SDS011;68792;53.338;-1.502;2023-05-14T05:21:30;4.22;;;3.00;;
79145;SDS011;68792;53.338;-1.502;2023-05-14T05:23:55;4.95;;;3.63;;
79145;SDS011;68792;53.338;-1.502;2023-05-14T05:26:20;3.78;;;3.03;;
79145;SDS011;68792;53.338;-1.502;2023-05-14T05:28:46;4.30;;;3.35;;
79145;SDS011;68792;53.338;-1.502;2023-05-14T05:31:12;4.60;;;3.28;;
79145;SDS011;68792;53.338;-1.502;2023-05-14T05:33:37;4.13;;;3.13;;
79145;SDS011;68792;53.338;-1.502;2023-05-14T05:36:02;4.25;;;3.05;;
79145;SDS011;68792;53.338;-1.502;2023-05-14T05:38:28;4.57;;;3.75;;
79145;SDS011;68792;53.338;-1.502;2023-05-14T05:40:53;4.50;;;3.38;;
79145;SDS011;68792;53.338;-1.502;2023-05-14T05:43:19;4.40;;;3.55;;
79145;SDS011;68792;53.338;-1.502;2023-05-14T05:45:44;4.28;;;3.28;;
79145;SDS011;68792;53.338;-1.502;2023-05-14T05:48:10;4.30;;;2.70;;
79145;SDS011;68792;53.338;-1.502;2023-05-14T05:50:35;4.38;;;3.40;;
79145;SDS011;68792;53.338;-1.502;2023-05-14T05:53:01;4.18;;;3.28;;
79145;SDS011;68792;53.338;-1.502;2023-05-14T05:55:27;3.55;;;3.10;;
79145;SDS011;68792;53.338;-1.502;2023-05-14T06:00:18;3.50;;;2.83;;
79145;SDS011;68792;53.338;-1.502;2023-05-14T06:02:44;4.95;;;3.53;;
79145;SDS011;68792;53.338;-1.502;2023-05-14T06:05:10;4.70;;;3.28;;
79145;SDS011;68792;53.338;-1.502;2023-05-14T06:07:36;4.18;;;2.88;;
79145;SDS011;68792;53.338;-1.502;2023-05-14T06:10:01;3.97;;;2.95;;
79145;SDS011;68792;53.338;-1.502;2023-05-14T06:12:27;4.15;;;3.35;;
79145;SDS011;68792;53.338;-1.502;2023-05-14T06:14:53;3.60;;;3.13;;
79145;SDS011;68792;53.338;-1.502;2023-05-14T06:17:22;4.68;;;3.20;;
79145;SDS011;68792;53.338;-1.502;2023-05-14T06:19:48;4.22;;;3.05;;
79145;SDS011;68792;53.338;-1.502;2023-05-14T06:22:14;4.32;;;2.80;;
79145;SDS011;68792;53.338;-1.502;2023-05-14T06:24:39;4.25;;;3.00;;
79145;SDS011;68792;53.338;-1.502;2023-05-14T06:27:05;4.10;;;3.15;;
79145;SDS011;68792;53.338;-1.502;2023-05-14T06:29:30;4.40;;;3.28;;
79145;SDS011;68792;53.338;-1.502;2023-05-14T06:31:59;4.00;;;3.03;;
79145;SDS011;68792;53.338;-1.502;2023-05-14T06:34:25;3.67;;;2.90;;
79145;SDS011;68792;53.338;-1.502;2023-05-14T06:36:50;3.67;;;2.97;;
79145;SDS011;68792;53.338;-1.502;2023-05-14T06:39:16;3.58;;;3.28;;
79145;SDS011;68792;53.338;-1.502;2023-05-14T06:41:41;4.75;;;3.10;;
79145;SDS011;68792;53.338;-1.502;2023-05-14T06:44:06;3.97;;;3.13;;
79145;SDS011;68792;53.338;-1.502;2023-05-14T06:46:32;3.38;;;2.72;;
79145;SDS011;68792;53.338;-1.502;2023-05-14T06:48:57;3.72;;;3.00;;
79145;SDS011;68792;53.338;-1.502;2023-05-14T06:51:23;3.42;;;2.80;;
79145;SDS011;68792;53.338;-1.502;2023-05-14T06:53:48;4.47;;;2.92;;
79145;SDS011;68792;53.338;-1.502;2023-05-14T06:56:13;3.83;;;2.60;;
79145;SDS011;68792;53.338;-1.502;2023-05-14T06:58:39;3.65;;;2.70;;
79145;SDS011;68792;53.338;-1.502;2023-05-14T07:01:04;4.07;;;3.00;;
79145;SDS011;68792;53.338;-1.502;2023-05-14T07:03:30;3.65;;;2.78;;
79145;SDS011;68792;53.338;-1.502;2023-05-14T07:05:55;3.80;;;2.92;;
79145;SDS011;68792;53.338;-1.502;2023-05-14T07:08:21;4.10;;;3.28;;
79145;SDS011;68792;53.338;-1.502;2023-05-14T07:10:46;3.22;;;2.60;;
79145;SDS011;68792;53.338;-1.502;2023-05-14T07:13:12;4.22;;;3.00;;
79145;SDS011;68792;53.338;-1.502;2023-05-14T07:15:37;3.55;;;2.97;;
79145;SDS011;68792;53.338;-1.502;2023-05-14T07:18:03;10.05;;;2.97;;
79145;SDS011;68792;53.338;-1.502;2023-05-14T07:20:28;4.75;;;3.15;;
79145;SDS011;68792;53.338;-1.502;2023-05-14T07:22:53;7.00;;;3.30;;
79145;SDS011;68792;53.338;-1.502;2023-05-14T07:25:19;3.13;;;2.33;;
79145;SDS011;68792;53.338;-1.502;2023-05-14T07:27:44;4.25;;;3.22;;
79145;SDS011;68792;53.338;-1.502;2023-05-14T07:30:10;4.88;;;2.92;;
79145;SDS011;68792;53.338;-1.502;2023-05-14T07:32:35;3.88;;;2.60;;
79145;SDS011;68792;53.338;-1.502;2023-05-14T07:35:01;4.28;;;2.55;;
79145;SDS011;68792;53.338;-1.502;2023-05-14T07:37:26;3.83;;;2.70;;
79145;SDS011;68792;53.338;-1.502;2023-05-14T07:39:52;3.78;;;2.83;;
79145;SDS011;68792;53.338;-1.502;2023-05-14T07:42:17;3.75;;;2.20;;
79145;SDS011;68792;53.338;-1.502;2023-05-14T07:44:43;3.65;;;2.47;;
79145;SDS011;68792;53.338;-1.502;2023-05-14T07:47:08;2.97;;;2.58;;
79145;SDS011;68792;53.338;-1.502;2023-05-14T07:49:34;3.28;;;2.40;;
79145;SDS011;68792;53.338;-1.502;2023-05-14T07:52:00;3.65;;;2.35;;
79145;SDS011;68792;53.338;-1.502;2023-05-14T07:54:25;3.35;;;2.40;;
79145;SDS011;68792;53.338;-1.502;2023-05-14T07:56:51;3.28;;;2.50;;
79145;SDS011;68792;53.338;-1.502;2023-05-14T07:59:16;2.90;;;2.30;;
79145;SDS011;68792;53.338;-1.502;2023-05-14T08:01:42;4.13;;;2.97;;
79145;SDS011;68792;53.338;-1.502;2023-05-14T08:04:08;3.83;;;2.25;;
79145;SDS011;68792;53.338;-1.502;2023-05-14T08:06:35;3.80;;;2.33;;
79145;SDS011;68792;53.338;-1.502;2023-05-14T08:09:01;3.97;;;2.60;;
79145;SDS011;68792;53.338;-1.502;2023-05-14T08:11:29;2.97;;;2.63;;
79145;SDS011;68792;53.338;-1.502;2023-05-14T08:13:55;2.92;;;2.22;;
79145;SDS011;68792;53.338;-1.502;2023-05-14T08:16:20;3.08;;;2.65;;
79145;SDS011;68792;53.338;-1.502;2023-05-14T08:18:45;4.22;;;2.90;;
79145;SDS011;68792;53.338;-1.502;2023-05-14T08:21:11;3.55;;;2.33;;
79145;SDS011;68792;53.338;-1.502;2023-05-14T08:23:36;2.88;;;2.38;;
79145;SDS011;68792;53.338;-1.502;2023-05-14T08:26:02;2.88;;;2.58;;
79145;SDS011;68792;53.338;-1.502;2023-05-14T08:28:27;3.88;;;2.53;;
79145;SDS011;68792;53.338;-1.502;2023-05-14T08:30:53;3.53;;;2.88;;
79145;SDS011;68792;53.338;-1.502;2023-05-14T08:33:19;3.95;;;2.65;;
79145;SDS011;68792;53.338;-1.502;2023-05-14T08:35:44;4.93;;;2.70;;
79145;SDS011;68792;53.338;-1.502;2023-05-14T08:38:09;5.72;;;2.45;;
79145;SDS011;68792;53.338;-1.502;2023-05-14T08:40:35;8.40;;;2.70;;
79145;SDS011;68792;53.338;-1.502;2023-05-14T08:43:01;4.00;;;2.33;;
79145;SDS011;68792;53.338;-1.502;2023-05-14T08:45:28;5.07;;;2.40;;
79145;SDS011;68792;53.338;-1.502;2023-05-14T08:47:57;5.90;;;2.22;;
79145;SDS011;68792;53.338;-1.502;2023-05-14T08:50:24;4.65;;;2.33;;
79145;SDS011;68792;53.338;-1.502;2023-05-14T08:52:50;4.07;;;2.28;;
79145;SDS011;68792;53.338;-1.502;2023-05-14T08:55:17;4.82;;;2.50;;
79145;SDS011;68792;53.338;-1.502;2023-05-14T08:57:42;5.93;;;2.17;;
79145;SDS011;68792;53.338;-1.502;2023-05-14T09:00:08;2.83;;;2.30;;
79145;SDS011;68792;53.338;-1.502;2023-05-14T09:02:38;3.78;;;2.25;;
79145;SDS011;68792;53.338;-1.502;2023-05-14T09:05:04;2.85;;;2.00;;
79145;SDS011;68792;53.338;-1.502;2023-05-14T09:07:31;5.45;;;2.22;;
79145;SDS011;68792;53.338;-1.502;2023-05-14T09:12:23;4.68;;;2.63;;
79145;SDS011;68792;53.338;-1.502;2023-05-14T09:14:49;6.45;;;2.30;;
79145;SDS011;68792;53.338;-1.502;2023-05-14T09:17:15;4.20;;;2.33;;
79145;SDS011;68792;53.338;-1.502;2023-05-14T09:19:41;3.72;;;2.28;;
79145;SDS011;68792;53.338;-1.502;2023-05-14T09:22:11;4.75;;;2.50;;
79145;SDS011;68792;53.338;-1.502;2023-05-14T09:24:37;4.53;;;2.30;;
79145;SDS011;68792;53.338;-1.502;2023-05-14T09:27:03;3.22;;;2.45;;
79145;SDS011;68792;53.338;-1.502;2023-05-14T09:29:29;4.93;;;2.20;;
79145;SDS011;68792;53.338;-1.502;2023-05-14T09:31:55;2.95;;;2.45;;
79145;SDS011;68792;53.338;-1.502;2023-05-14T09:34:28;2.97;;;2.10;;
79145;SDS011;68792;53.338;-1.502;2023-05-14T09:36:58;3.83;;;2.33;;
79145;SDS011;68792;53.338;-1.502;2023-05-14T09:39:34;3.90;;;2.22;;
79145;SDS011;68792;53.338;-1.502;2023-05-14T09:42:00;2.42;;;1.80;;
79145;SDS011;68792;53.338;-1.502;2023-05-14T09:44:26;3.08;;;2.10;;
79145;SDS011;68792;53.338;-1.502;2023-05-14T09:46:52;3.75;;;2.22;;
79145;SDS011;68792;53.338;-1.502;2023-05-14T09:49:18;4.25;;;2.55;;
79145;SDS011;68792;53.338;-1.502;2023-05-14T09:51:44;3.58;;;2.10;;
79145;SDS011;68792;53.338;-1.502;2023-05-14T09:54:09;5.53;;;2.50;;
79145;SDS011;68792;53.338;-1.502;2023-05-14T09:56:35;4.82;;;2.20;;
79145;SDS011;68792;53.338;-1.502;2023-05-14T09:59:02;3.28;;;2.10;;
79145;SDS011;68792;53.338;-1.502;2023-05-14T10:03:54;5.90;;;2.13;;
79145;SDS011;68792;53.338;-1.502;2023-05-14T10:06:24;2.92;;;2.20;;
79145;SDS011;68792;53.338;-1.502;2023-05-14T10:08:52;3.35;;;2.33;;
79145;SDS011;68792;53.338;-1.502;2023-05-14T10:11:23;2.35;;;1.67;;
79145;SDS011;68792;53.338;-1.502;2023-05-14T10:16:36;3.15;;;2.10;;
79145;SDS011;68792;53.338;-1.502;2023-05-14T10:19:11;2.13;;;1.80;;
79145;SDS011;68792;53.338;-1.502;2023-05-14T10:21:37;2.88;;;2.13;;
79145;SDS011;68792;53.338;-1.502;2023-05-14T10:24:05;2.53;;;2.08;;
79145;SDS011;68792;53.338;-1.502;2023-05-14T10:26:31;2.83;;;2.03;;
79145;SDS011;68792;53.338;-1.502;2023-05-14T10:28:58;2.60;;;2.08;;
79145;SDS011;68792;53.338;-1.502;2023-05-14T10:31:46;2.85;;;1.98;;
79145;SDS011;68792;53.338;-1.502;2023-05-14T10:34:29;2.47;;;2.00;;
79145;SDS011;68792;53.338;-1.502;2023-05-14T10:37:02;2.35;;;1.92;;
79145;SDS011;68792;53.338;-1.502;2023-05-14T10:42:22;2.35;;;1.60;;
79145;SDS011;68792;53.338;-1.502;2023-05-14T10:47:29;3.70;;;2.13;;
79145;SDS011;68792;53.338;-1.502;2023-05-14T10:50:00;2.90;;;2.00;;
79145;SDS011;68792;53.338;-1.502;2023-05-14T10:52:26;3.83;;;2.30;;
79145;SDS011;68792;53.338;-1.502;2023-05-14T10:54:53;2.05;;;1.65;;
79145;SDS011;68792;53.338;-1.502;2023-05-14T10:57:21;3.10;;;1.92;;
79145;SDS011;68792;53.338;-1.502;2023-05-14T10:59:48;2.65;;;1.67;;
79145;SDS011;68792;53.338;-1.502;2023-05-14T11:02:26;4.10;;;2.05;;
79145;SDS011;68792;53.338;-1.502;2023-05-14T11:07:22;2.80;;;1.77;;
79145;SDS011;68792;53.338;-1.502;2023-05-14T11:09:49;3.08;;;1.80;;
79145;SDS011;68792;53.338;-1.502;2023-05-14T11:12:15;3.08;;;2.03;;
79145;SDS011;68792;53.338;-1.502;2023-05-14T11:17:06;2.20;;;1.90;;
79145;SDS011;68792;53.338;-1.502;2023-05-14T11:19:32;3.00;;;1.80;;
79145;SDS011;68792;53.338;-1.502;2023-05-14T11:21:58;2.67;;;1.80;;
79145;SDS011;68792;53.338;-1.502;2023-05-14T11:24:25;2.00;;;1.60;;
79145;SDS011;68792;53.338;-1.502;2023-05-14T11:26:51;2.30;;;1.70;;
79145;SDS011;68792;53.338;-1.502;2023-05-14T11:29:17;2.38;;;1.63;;
79145;SDS011;68792;53.338;-1.502;2023-05-14T11:31:42;2.22;;;1.60;;
79145;SDS011;68792;53.338;-1.502;2023-05-14T11:34:08;2.80;;;2.10;;
79145;SDS011;68792;53.338;-1.502;2023-05-14T11:36:35;3.05;;;2.20;;
79145;SDS011;68792;53.338;-1.502;2023-05-14T11:39:01;2.78;;;2.28;;
79145;SDS011;68792;53.338;-1.502;2023-05-14T11:41:26;2.22;;;1.70;;
79145;SDS011;68792;53.338;-1.502;2023-05-14T11:43:52;2.97;;;1.92;;
79145;SDS011;68792;53.338;-1.502;2023-05-14T11:46:17;2.25;;;1.65;;
79145;SDS011;68792;53.338;-1.502;2023-05-14T11:48:43;3.92;;;1.80;;
79145;SDS011;68792;53.338;-1.502;2023-05-14T11:51:08;5.32;;;2.67;;
79145;SDS011;68792;53.338;-1.502;2023-05-14T11:53:34;7.60;;;2.80;;
79145;SDS011;68792;53.338;-1.502;2023-05-14T11:55:59;6.35;;;3.53;;
79145;SDS011;68792;53.338;-1.502;2023-05-14T11:58:27;6.85;;;3.75;;
79145;SDS011;68792;53.338;-1.502;2023-05-14T12:00:53;6.47;;;3.63;;
79145;SDS011;68792;53.338;-1.502;2023-05-14T12:03:19;5.30;;;3.13;;
79145;SDS011;68792;53.338;-1.502;2023-05-14T12:05:53;5.78;;;3.20;;
79145;SDS011;68792;53.338;-1.502;2023-05-14T12:08:25;4.47;;;3.15;;
79145;SDS011;68792;53.338;-1.502;2023-05-14T12:10:54;5.43;;;2.83;;
79145;SDS011;68792;53.338;-1.502;2023-05-14T12:13:20;4.57;;;2.42;;
79145;SDS011;68792;53.338;-1.502;2023-05-14T12:15:47;5.40;;;2.58;;
79145;SDS011;68792;53.338;-1.502;2023-05-14T12:20:47;5.27;;;2.27;;
79145;SDS011;68792;53.338;-1.502;2023-05-14T12:23:13;5.03;;;2.63;;
79145;SDS011;68792;53.338;-1.502;2023-05-14T12:25:39;6.38;;;2.60;;
79145;SDS011;68792;53.338;-1.502;2023-05-14T12:28:13;4.15;;;2.40;;
79145;SDS011;68792;53.338;-1.502;2023-05-14T12:30:39;7.70;;;2.17;;
79145;SDS011;68792;53.338;-1.502;2023-05-14T12:33:05;5.00;;;2.03;;
79145;SDS011;68792;53.338;-1.502;2023-05-14T12:35:31;7.60;;;1.95;;
79145;SDS011;68792;53.338;-1.502;2023-05-14T12:37:56;2.95;;;1.90;;
79145;SDS011;68792;53.338;-1.502;2023-05-14T12:40:22;1.88;;;1.50;;
79145;SDS011;68792;53.338;-1.502;2023-05-14T12:42:47;2.55;;;1.75;;
79145;SDS011;68792;53.338;-1.502;2023-05-14T12:45:13;4.40;;;1.98;;
79145;SDS011;68792;53.338;-1.502;2023-05-14T12:47:38;3.08;;;1.60;;
79145;SDS011;68792;53.338;-1.502;2023-05-14T12:50:03;4.95;;;1.80;;
79145;SDS011;68792;53.338;-1.502;2023-05-14T12:52:29;2.58;;;1.42;;
79145;SDS011;68792;53.338;-1.502;2023-05-14T12:54:55;2.45;;;1.48;;
79145;SDS011;68792;53.338;-1.502;2023-05-14T12:57:20;2.92;;;1.20;;
79145;SDS011;68792;53.338;-1.502;2023-05-14T12:59:46;2.50;;;1.30;;
79145;SDS011;68792;53.338;-1.502;2023-05-14T13:02:11;3.35;;;1.17;;
79145;SDS011;68792;53.338;-1.502;2023-05-14T13:04:36;1.80;;;1.25;;
79145;SDS011;68792;53.338;-1.502;2023-05-14T13:07:02;1.98;;;1.40;;
79145;SDS011;68792;53.338;-1.502;2023-05-14T13:09:27;1.50;;;1.10;;
79145;SDS011;68792;53.338;-1.502;2023-05-14T13:11:54;2.00;;;1.20;;
79145;SDS011;68792;53.338;-1.502;2023-05-14T13:14:20;2.75;;;0.93;;
79145;SDS011;68792;53.338;-1.502;2023-05-14T13:16:45;2.45;;;1.05;;
79145;SDS011;68792;53.338;-1.502;2023-05-14T13:19:10;2.72;;;0.93;;
79145;SDS011;68792;53.338;-1.502;2023-05-14T13:21:36;2.97;;;1.00;;
79145;SDS011;68792;53.338;-1.502;2023-05-14T13:24:02;2.42;;;0.88;;
79145;SDS011;68792;53.338;-1.502;2023-05-14T13:26:27;2.72;;;1.02;;
79145;SDS011;68792;53.338;-1.502;2023-05-14T13:28:52;1.85;;;1.20;;
79145;SDS011;68792;53.338;-1.502;2023-05-14T13:31:18;1.90;;;0.80;;
79145;SDS011;68792;53.338;-1.502;2023-05-14T13:33:43;1.27;;;1.02;;
79145;SDS011;68792;53.338;-1.502;2023-05-14T13:36:10;2.17;;;0.80;;
79145;SDS011;68792;53.338;-1.502;2023-05-14T13:38:37;2.20;;;1.10;;
79145;SDS011;68792;53.338;-1.502;2023-05-14T13:41:03;1.45;;;1.00;;
79145;SDS011;68792;53.338;-1.502;2023-05-14T13:43:29;1.75;;;1.10;;
79145;SDS011;68792;53.338;-1.502;2023-05-14T13:45:55;1.95;;;1.23;;
79145;SDS011;68792;53.338;-1.502;2023-05-14T13:48:21;5.30;;;1.27;;
79145;SDS011;68792;53.338;-1.502;2023-05-14T13:50:47;2.72;;;1.08;;
79145;SDS011;68792;53.338;-1.502;2023-05-14T13:53:13;1.52;;;0.75;;
79145;SDS011;68792;53.338;-1.502;2023-05-14T13:55:38;2.28;;;1.05;;
79145;SDS011;68792;53.338;-1.502;2023-05-14T13:58:04;2.95;;;0.90;;
79145;SDS011;68792;53.338;-1.502;2023-05-14T14:00:29;3.30;;;1.20;;
79145;SDS011;68792;53.338;-1.502;2023-05-14T14:02:55;2.08;;;1.05;;
79145;SDS011;68792;53.338;-1.502;2023-05-14T14:05:20;1.45;;;1.00;;
79145;SDS011;68792;53.338;-1.502;2023-05-14T14:10:12;3.55;;;1.10;;
79145;SDS011;68792;53.338;-1.502;2023-05-14T14:12:37;3.20;;;1.10;;
79145;SDS011;68792;53.338;-1.502;2023-05-14T14:15:03;3.58;;;1.02;;
79145;SDS011;68792;53.338;-1.502;2023-05-14T14:17:29;5.90;;;1.17;;
79145;SDS011;68792;53.338;-1.502;2023-05-14T14:19:55;4.10;;;1.13;;
79145;SDS011;68792;53.338;-1.502;2023-05-14T14:22:20;10.77;;;1.50;;
79145;SDS011;68792;53.338;-1.502;2023-05-14T14:24:46;4.47;;;1.30;;
79145;SDS011;68792;53.338;-1.502;2023-05-14T14:27:11;5.53;;;1.20;;
79145;SDS011;68792;53.338;-1.502;2023-05-14T14:29:36;5.32;;;1.52;;
79145;SDS011;68792;53.338;-1.502;2023-05-14T14:32:02;5.25;;;1.02;;
79145;SDS011;68792;53.338;-1.502;2023-05-14T14:34:27;4.03;;;1.27;;
79145;SDS011;68792;53.338;-1.502;2023-05-14T14:36:53;5.18;;;1.10;;
79145;SDS011;68792;53.338;-1.502;2023-05-14T14:39:18;2.50;;;1.17;;
79145;SDS011;68792;53.338;-1.502;2023-05-14T14:41:44;7.03;;;1.20;;
79145;SDS011;68792;53.338;-1.502;2023-05-14T14:44:09;2.55;;;1.02;;
79145;SDS011;68792;53.338;-1.502;2023-05-14T14:46:34;3.80;;;1.25;;
79145;SDS011;68792;53.338;-1.502;2023-05-14T14:49:00;4.25;;;1.08;;
79145;SDS011;68792;53.338;-1.502;2023-05-14T14:51:25;3.70;;;1.20;;
79145;SDS011;68792;53.338;-1.502;2023-05-14T14:53:51;4.13;;;1.27;;
79145;SDS011;68792;53.338;-1.502;2023-05-14T14:56:16;1.95;;;1.23;;
79145;SDS011;68792;53.338;-1.502;2023-05-14T14:58:42;2.92;;;1.20;;
79145;SDS011;68792;53.338;-1.502;2023-05-14T15:01:09;3.65;;;1.00;;
79145;SDS011;68792;53.338;-1.502;2023-05-14T15:03:34;3.47;;;1.08;;
79145;SDS011;68792;53.338;-1.502;2023-05-14T15:06:00;2.85;;;1.50;;